Time;durP1;ratioP1;P1;durP2;ratioP2;P2;SDS_P1;SDS_P2;PMS_P1;PMS_P2;Temp;Humidity;BMP_temperature;BMP_pressure;BME280_temperature;BME280_humidity;BME280_pressure;Samples;Min_cycle;Max_cycle;Signal;HPM_P1;HPM_P2
2023/01/31 00:01:15;;;;;;;;;;;17.10;62.30;;;;;;5021282;28;882;-69
2023/01/31 00:03:42;;;;;;;;;;;17.10;62.30;;;;;;5019809;28;978;-69
2023/01/31 00:06:08;;;;;;;;;;;17.10;62.30;;;;;;5020210;28;1981;-70
2023/01/31 00:08:33;;;;;;;;;;;17.10;62.40;;;;;;5019232;28;1317;-69
2023/01/31 00:10:59;;;;;;;;;;;17.10;62.40;;;;;;5017178;28;844;-70
2023/01/31 00:13:24;;;;;;;;;;;17.10;62.50;;;;;;5017915;28;974;-70
2023/01/31 00:15:50;;;;;;;;;;;17.10;62.40;;;;;;5030451;28;1372;-69
2023/01/31 00:18:15;;;;;;;;;;;17.10;62.40;;;;;;5018775;28;1385;-70
2023/01/31 00:20:41;;;;;;;;;;;17.10;62.40;;;;;;5018982;28;875;-70
2023/01/31 00:23:06;;;;;;;;;;;17.00;62.40;;;;;;5019424;28;885;-69
2023/01/31 00:25:32;;;;;;;;;;;17.10;62.50;;;;;;5035236;28;1894;-69
2023/01/31 00:27:57;;;;;;;;;;;17.10;62.50;;;;;;5029906;28;1339;-70
2023/01/31 00:30:22;;;;;;;;;;;17.10;62.50;;;;;;5016905;28;1639;-70
2023/01/31 00:32:48;;;;;;;;;;;17.10;62.50;;;;;;5019473;28;813;-69
2023/01/31 00:35:13;;;;;;;;;;;17.10;62.50;;;;;;5018981;28;1330;-70
2023/01/31 00:37:39;;;;;;;;;;;17.10;62.50;;;;;;5016832;28;1000;-70
2023/01/31 00:40:05;;;;;;;;;;;17.10;62.50;;;;;;5018625;28;1390;-69
2023/01/31 00:42:30;;;;;;;;;;;17.10;62.60;;;;;;5031100;28;836;-70
2023/01/31 00:44:56;;;;;;;;;;;17.10;62.60;;;;;;5017015;28;1902;-69
2023/01/31 00:47:21;;;;;;;;;;;17.10;62.60;;;;;;5019145;28;819;-69
2023/01/31 00:49:47;;;;;;;;;;;17.10;62.60;;;;;;5018454;28;1273;-69
2023/01/31 00:52:12;;;;;;;;;;;17.00;62.50;;;;;;5018920;28;815;-67
2023/01/31 00:54:38;;;;;;;;;;;17.00;62.60;;;;;;5015812;28;873;-68
2023/01/31 00:57:04;;;;;;;;;;;17.00;62.60;;;;;;5015721;28;866;-69
2023/01/31 00:59:29;;;;;;;;;;;17.00;62.60;;;;;;5018292;28;1312;-69
2023/01/31 01:01:55;;;;;;;;;;;17.00;62.60;;;;;;5014700;28;800;-69
2023/01/31 01:04:20;;;;;;;;;;;17.00;62.70;;;;;;5020276;28;1988;-69
2023/01/31 01:06:46;;;;;;;;;;;17.00;62.60;;;;;;5017312;28;927;-69
2023/01/31 01:09:11;;;;;;;;;;;17.00;62.70;;;;;;5015184;28;1253;-69
2023/01/31 01:11:37;;;;;;;;;;;17.00;62.70;;;;;;5015475;28;892;-70
2023/01/31 01:14:03;;;;;;;;;;;17.00;62.70;;;;;;5017149;28;1053;-69
2023/01/31 01:16:35;;;;;;;;;;;17.00;62.70;;;;;;5017001;28;816;-67
2023/01/31 01:19:01;;;;;;;;;;;17.00;62.70;;;;;;5021315;28;1222;-68
2023/01/31 01:21:28;;;;;;;;;;;17.00;62.80;;;;;;5018426;28;829;-69
2023/01/31 01:24:00;;;;;;;;;;;17.00;62.70;;;;;;5015350;28;1906;-69
2023/01/31 01:26:27;;;;;;;;;;;17.00;62.70;;;;;;5018506;28;1074;-69
2023/01/31 01:28:53;;;;;;;;;;;17.00;62.70;;;;;;5018993;28;1257;-69
2023/01/31 01:31:18;;;;;;;;;;;17.00;62.70;;;;;;5019172;28;856;-69
2023/01/31 01:33:44;;;;;;;;;;;17.00;62.80;;;;;;5018964;28;1062;-68
2023/01/31 01:36:12;;;;;;;;;;;17.00;62.70;;;;;;5034030;28;1286;-69
2023/01/31 01:38:37;;;;;;;;;;;17.00;62.80;;;;;;5033902;28;1347;-69
2023/01/31 01:41:03;;;;;;;;;;;17.00;62.80;;;;;;5037123;28;1062;-70
2023/01/31 01:43:38;;;;;;;;;;;17.00;62.80;;;;;;5019276;28;954;-68
2023/01/31 01:46:04;;;;;;;;;;;17.00;62.80;;;;;;5018564;28;1968;-69
2023/01/31 01:48:29;;;;;;;;;;;17.00;62.80;;;;;;5018823;28;1269;-68
2023/01/31 01:50:55;;;;;;;;;;;17.00;62.80;;;;;;5038393;28;899;-70
2023/01/31 01:53:21;;;;;;;;;;;17.00;62.80;;;;;;5023949;28;918;-68
2023/01/31 01:55:48;;;;;;;;;;;16.90;62.80;;;;;;5034784;28;919;-68
2023/01/31 01:58:15;;;;;;;;;;;16.90;62.90;;;;;;5037263;28;1344;-69
2023/01/31 02:00:41;;;;;;;;;;;16.90;62.80;;;;;;5022493;28;923;-69
2023/01/31 02:03:06;;;;;;;;;;;16.90;62.80;;;;;;5019394;28;1006;-69
2023/01/31 02:05:34;;;;;;;;;;;16.90;62.80;;;;;;5021525;28;1890;-70
2023/01/31 02:07:59;;;;;;;;;;;16.90;62.90;;;;;;5037184;28;1257;-71
2023/01/31 02:10:33;;;;;;;;;;;16.90;62.90;;;;;;5024539;28;879;-70
2023/01/31 02:12:58;;;;;;;;;;;16.90;62.90;;;;;;5036029;28;1005;-69
2023/01/31 02:15:24;;;;;;;;;;;16.90;62.90;;;;;;5033475;28;1041;-69
2023/01/31 02:17:49;;;;;;;;;;;16.90;62.90;;;;;;5024513;28;1377;-70
2023/01/31 02:20:22;;;;;;;;;;;16.90;62.90;;;;;;5036588;28;831;-70
2023/01/31 02:22:56;;;;;;;;;;;16.90;63.00;;;;;;5022774;28;765;-70
2023/01/31 02:25:31;;;;;;;;;;;16.90;62.90;;;;;;5020618;28;1935;-70
2023/01/31 02:28:05;;;;;;;;;;;16.90;63.00;;;;;;5019210;28;1327;-71
2023/01/31 02:30:39;;;;;;;;;;;16.90;63.00;;;;;;5021257;28;896;-70
2023/01/31 02:33:19;;;;;;;;;;;16.90;63.00;;;;;;5028221;28;1271;-72
2023/01/31 02:35:51;;;;;;;;;;;16.90;63.00;;;;;;5029210;28;1314;-70
2023/01/31 02:38:26;;;;;;;;;;;16.90;63.00;;;;;;5038060;28;1369;-69
2023/01/31 02:40:51;;;;;;;;;;;16.90;63.00;;;;;;5019467;28;1003;-70
2023/01/31 02:44:57;;;;;;;;;;;16.90;63.00;;;;;;5021631;28;975;-70
2023/01/31 02:46:28;;;;;;;;;;;16.90;63.00;;;;;;5019388;28;1109;-69
2023/01/31 02:48:57;;;;;;;;;;;16.90;63.00;;;;;;5022285;28;1260;-71
2023/01/31 02:51:30;;;;;;;;;;;16.90;63.10;;;;;;5034038;28;875;-71
2023/01/31 02:53:59;;;;;;;;;;;16.90;63.10;;;;;;5035995;28;1022;-69
2023/01/31 02:56:26;;;;;;;;;;;16.90;63.10;;;;;;5034882;28;948;-70
2023/01/31 02:59:04;;;;;;;;;;;16.90;63.10;;;;;;5018254;28;1264;-71
2023/01/31 03:01:36;;;;;;;;;;;16.90;63.10;;;;;;5032240;28;1431;-70
2023/01/31 03:04:03;;;;;;;;;;;16.90;63.10;;;;;;5035366;28;1965;-70
2023/01/31 03:06:32;;;;;;;;;;;16.90;63.10;;;;;;5011238;28;1231;-69
2023/01/31 03:09:23;;;;;;;;;;;16.90;63.10;;;;;;5022497;28;1362;-69
2023/01/31 03:11:52;;;;;;;;;;;16.90;63.10;;;;;;5019130;28;1051;-69
2023/01/31 03:14:21;;;;;;;;;;;16.90;63.20;;;;;;5020424;28;904;-70
2023/01/31 03:19:47;;;;;;;;;;;16.90;63.20;;;;;;5032526;28;1382;-70
2023/01/31 03:22:15;;;;;;;;;;;16.90;63.20;;;;;;5036204;28;1380;-70
2023/01/31 03:24:42;;;;;;;;;;;16.90;63.20;;;;;;5022160;28;1902;-70
2023/01/31 03:27:07;;;;;;;;;;;16.90;63.20;;;;;;5021434;28;883;-71
2023/01/31 03:29:34;;;;;;;;;;;16.90;63.20;;;;;;5021380;28;1379;-71
2023/01/31 03:32:00;;;;;;;;;;;16.90;63.20;;;;;;5033050;28;1576;-71
2023/01/31 03:34:25;;;;;;;;;;;16.90;63.20;;;;;;5023295;28;1437;-71
2023/01/31 03:37:04;;;;;;;;;;;16.90;63.20;;;;;;5035999;28;1526;-71
2023/01/31 03:39:36;;;;;;;;;;;16.90;63.20;;;;;;5020326;28;1377;-71
2023/01/31 03:42:06;;;;;;;;;;;16.90;63.30;;;;;;5021987;28;1219;-71
2023/01/31 03:44:47;;;;;;;;;;;16.80;63.20;;;;;;5020947;28;1926;-71
2023/01/31 03:47:21;;;;;;;;;;;16.90;63.30;;;;;;5023499;28;883;-69
2023/01/31 03:49:47;;;;;;;;;;;16.80;63.20;;;;;;5021757;28;1279;-69
2023/01/31 03:52:12;;;;;;;;;;;16.80;63.90;;;;;;5028081;28;956;-70
2023/01/31 03:54:39;;;;;;;;;;;16.90;63.30;;;;;;5032392;28;858;-70
2023/01/31 03:57:15;;;;;;;;;;;16.80;63.20;;;;;;5036101;28;828;-70
2023/01/31 03:59:41;;;;;;;;;;;16.90;63.30;;;;;;5020006;28;1334;-70
2023/01/31 04:02:08;;;;;;;;;;;16.80;63.20;;;;;;5020697;28;978;-70
2023/01/31 04:04:36;;;;;;;;;;;16.80;63.30;;;;;;5023091;28;1898;-70
2023/01/31 04:07:02;;;;;;;;;;;16.80;63.20;;;;;;5018937;28;852;-69
2023/01/31 04:09:27;;;;;;;;;;;16.80;63.20;;;;;;5022957;28;1501;-69
2023/01/31 04:11:53;;;;;;;;;;;16.80;63.20;;;;;;5014019;28;892;-69
2023/01/31 04:14:18;;;;;;;;;;;16.80;63.30;;;;;;5033722;28;1140;-69
2023/01/31 04:16:44;;;;;;;;;;;16.80;63.30;;;;;;5034305;28;816;-70
2023/01/31 04:19:10;;;;;;;;;;;16.80;63.30;;;;;;5019053;28;1308;-70
2023/01/31 04:21:36;;;;;;;;;;;16.80;63.30;;;;;;5019243;28;933;-70
2023/01/31 04:24:01;;;;;;;;;;;16.90;63.40;;;;;;5018877;28;1926;-70
2023/01/31 04:26:27;;;;;;;;;;;16.80;63.30;;;;;;5019739;28;879;-70
2023/01/31 04:28:52;;;;;;;;;;;16.90;63.40;;;;;;5022657;28;1281;-70
2023/01/31 04:31:18;;;;;;;;;;;16.80;63.30;;;;;;5019116;28;836;-70
2023/01/31 04:33:43;;;;;;;;;;;16.80;63.30;;;;;;5019454;28;1115;-70
2023/01/31 04:36:09;;;;;;;;;;;16.80;64.00;;;;;;5018857;28;1269;-70
2023/01/31 04:38:34;;;;;;;;;;;16.80;63.30;;;;;;5034341;28;1294;-70
2023/01/31 04:41:00;;;;;;;;;;;16.80;63.20;;;;;;5022223;28;1599;-70
2023/01/31 04:43:25;;;;;;;;;;;16.90;63.30;;;;;;5019372;28;937;-70
2023/01/31 04:45:51;;;;;;;;;;;16.90;63.30;;;;;;5019342;28;1983;-70
2023/01/31 04:48:16;;;;;;;;;;;16.90;63.20;;;;;;5019569;28;1279;-70
2023/01/31 04:50:42;;;;;;;;;;;16.90;63.20;;;;;;5019807;28;1318;-70
2023/01/31 04:53:07;;;;;;;;;;;16.90;63.20;;;;;;5021826;28;879;-70
2023/01/31 04:55:33;;;;;;;;;;;16.90;63.20;;;;;;5015559;28;1602;-70
2023/01/31 04:57:59;;;;;;;;;;;16.90;63.20;;;;;;5017388;28;1358;-70
2023/01/31 05:00:24;;;;;;;;;;;16.90;63.20;;;;;;5019462;28;1133;-69
2023/01/31 05:02:50;;;;;;;;;;;16.90;63.20;;;;;;5016613;28;861;-69
2023/01/31 05:05:15;;;;;;;;;;;16.90;63.10;;;;;;5018251;28;1995;-70
2023/01/31 05:07:42;;;;;;;;;;;16.90;63.10;;;;;;5021057;28;865;-70
2023/01/31 05:10:08;;;;;;;;;;;16.90;63.10;;;;;;5018692;28;1361;-70
2023/01/31 05:12:33;;;;;;;;;;;16.90;63.70;;;;;;5016747;28;868;-70
2023/01/31 05:14:59;;;;;;;;;;;17.00;63.00;;;;;;5014207;28;1101;-70
2023/01/31 05:17:28;;;;;;;;;;;17.00;62.90;;;;;;5018910;28;892;-69
2023/01/31 05:19:57;;;;;;;;;;;17.00;62.70;;;;;;5016707;28;1255;-69
2023/01/31 05:22:22;;;;;;;;;;;17.10;62.70;;;;;;5035507;28;872;-69
2023/01/31 05:24:48;;;;;;;;;;;17.10;62.60;;;;;;5019053;28;1922;-70
2023/01/31 05:27:14;;;;;;;;;;;17.20;62.50;;;;;;5017007;28;1959;-69
2023/01/31 05:29:39;;;;;;;;;;;17.20;62.30;;;;;;5023854;28;1497;-69
2023/01/31 05:32:05;;;;;;;;;;;17.20;62.20;;;;;;5020413;28;1240;-69
2023/01/31 05:34:32;;;;;;;;;;;17.30;62.10;;;;;;5022130;28;1165;-68
2023/01/31 05:36:57;;;;;;;;;;;17.30;61.90;;;;;;5024025;28;868;-69
2023/01/31 05:39:23;;;;;;;;;;;17.30;61.80;;;;;;5021816;28;1370;-69
2023/01/31 05:41:48;;;;;;;;;;;17.30;61.70;;;;;;5024808;28;876;-70
2023/01/31 05:44:15;;;;;;;;;;;17.30;61.60;;;;;;5018222;28;1965;-70
2023/01/31 05:46:40;;;;;;;;;;;17.30;61.60;;;;;;5022271;28;875;-69
2023/01/31 05:49:06;;;;;;;;;;;17.40;61.60;;;;;;5027660;28;1280;-69
2023/01/31 05:51:31;;;;;;;;;;;17.40;61.50;;;;;;5024886;28;834;-69
2023/01/31 05:53:57;;;;;;;;;;;17.40;61.40;;;;;;5026715;28;852;-69
2023/01/31 05:56:22;;;;;;;;;;;17.40;61.40;;;;;;5021160;28;908;-69
2023/01/31 05:58:49;;;;;;;;;;;17.40;61.30;;;;;;5019256;28;1365;-69
2023/01/31 06:01:22;;;;;;;;;;;17.50;61.30;;;;;;5020212;28;911;-68
2023/01/31 06:03:47;;;;;;;;;;;17.50;61.30;;;;;;5021198;28;949;-68
2023/01/31 06:06:12;;;;;;;;;;;17.50;61.20;;;;;;5019569;28;1898;-68
2023/01/31 06:08:39;;;;;;;;;;;17.50;61.20;;;;;;5018474;28;1263;-68
2023/01/31 06:11:04;;;;;;;;;;;17.50;61.20;;;;;;5022032;28;1309;-68
2023/01/31 06:13:30;;;;;;;;;;;17.50;61.10;;;;;;5021830;28;863;-68
2023/01/31 06:15:56;;;;;;;;;;;17.50;61.10;;;;;;5035075;28;875;-69
2023/01/31 06:18:21;;;;;;;;;;;17.50;61.10;;;;;;5021236;28;1292;-68
2023/01/31 06:20:47;;;;;;;;;;;17.50;61.10;;;;;;5036121;28;1018;-68
2023/01/31 06:23:12;;;;;;;;;;;17.50;61.00;;;;;;5021016;28;781;-68
2023/01/31 06:25:37;;;;;;;;;;;17.50;61.00;;;;;;5017877;28;1894;-68
2023/01/31 06:28:03;;;;;;;;;;;17.50;61.00;;;;;;5020068;28;1283;-68
2023/01/31 06:30:29;;;;;;;;;;;17.50;61.00;;;;;;5027418;28;1677;-68
2023/01/31 06:32:54;;;;;;;;;;;17.50;61.00;;;;;;5017333;28;1032;-69
2023/01/31 06:35:19;;;;;;;;;;;17.60;61.00;;;;;;5019759;28;1049;-69
2023/01/31 06:37:45;;;;;;;;;;;17.50;60.90;;;;;;5018056;28;839;-69
2023/01/31 06:40:11;;;;;;;;;;;17.60;61.00;;;;;;5021399;28;817;-68
2023/01/31 06:42:36;;;;;;;;;;;17.60;61.00;;;;;;5016176;28;804;-68
2023/01/31 06:45:01;;;;;;;;;;;17.60;60.90;;;;;;5015652;28;1901;-70
2023/01/31 06:47:27;;;;;;;;;;;17.60;60.90;;;;;;5020736;28;1030;-69
2023/01/31 06:49:52;;;;;;;;;;;17.60;61.10;;;;;;5022828;28;1267;-70
2023/01/31 06:52:18;;;;;;;;;;;17.60;61.00;;;;;;5023267;28;809;-70
2023/01/31 06:54:43;;;;;;;;;;;17.60;60.90;;;;;;5021810;28;1026;-70
2023/01/31 06:57:09;;;;;;;;;;;17.60;60.90;;;;;;5023413;28;885;-69
2023/01/31 06:59:34;;;;;;;;;;;17.60;60.90;;;;;;5021947;28;2241;-70
2023/01/31 07:02:00;;;;;;;;;;;17.60;60.90;;;;;;5034480;28;1384;-70
2023/01/31 07:04:25;;;;;;;;;;;17.60;60.90;;;;;;5019883;28;1934;-71
2023/01/31 07:06:51;;;;;;;;;;;17.60;60.90;;;;;;5019092;28;946;-69
2023/01/31 07:09:16;;;;;;;;;;;17.60;60.90;;;;;;5024712;28;1301;-69
2023/01/31 07:11:42;;;;;;;;;;;17.60;60.90;;;;;;5022465;28;1487;-69
2023/01/31 07:14:07;;;;;;;;;;;17.60;61.20;;;;;;5020212;28;1060;-71
2023/01/31 07:16:33;;;;;;;;;;;17.60;60.80;;;;;;5018136;28;879;-71
2023/01/31 07:18:58;;;;;;;;;;;17.60;60.80;;;;;;5033389;28;1405;-69
2023/01/31 07:21:25;;;;;;;;;;;17.60;60.80;;;;;;5028468;28;1077;-73
2023/01/31 07:23:50;;;;;;;;;;;17.60;60.80;;;;;;5020470;28;780;-69
2023/01/31 07:26:16;;;;;;;;;;;17.60;60.80;;;;;;5032366;28;1963;-70
2023/01/31 07:28:41;;;;;;;;;;;17.60;60.80;;;;;;5017019;28;1256;-74
2023/01/31 07:31:09;;;;;;;;;;;17.60;60.80;;;;;;5034772;28;942;-71
2023/01/31 07:33:35;;;;;;;;;;;17.60;60.80;;;;;;5027535;28;1195;-71
2023/01/31 07:36:02;;;;;;;;;;;17.60;60.80;;;;;;5036520;28;1281;-71
2023/01/31 07:38:27;;;;;;;;;;;17.60;60.80;;;;;;5026305;28;1248;-72
2023/01/31 07:40:53;;;;;;;;;;;17.60;60.80;;;;;;5021059;28;792;-73
2023/01/31 07:43:19;;;;;;;;;;;17.60;60.80;;;;;;5019462;28;1282;-73
2023/01/31 07:45:45;;;;;;;;;;;17.60;60.80;;;;;;5019332;28;1906;-71
2023/01/31 07:48:10;;;;;;;;;;;17.60;60.80;;;;;;5034723;28;1281;-70
2023/01/31 07:50:36;;;;;;;;;;;17.60;60.80;;;;;;5018714;28;876;-72
2023/01/31 07:53:01;;;;;;;;;;;17.60;60.80;;;;;;5018841;28;784;-73
2023/01/31 07:55:27;;;;;;;;;;;17.60;60.90;;;;;;5022161;28;994;-70
2023/01/31 07:57:52;;;;;;;;;;;17.60;60.90;;;;;;5018428;28;1403;-70
2023/01/31 08:03:31;;;;;;;;;;;17.60;60.90;;;;;;5003537;28;1160;-70
2023/01/31 08:05:56;;;;;;;;;;;17.60;60.90;;;;;;5017372;28;1953;-70
2023/01/31 08:08:22;;;;;;;;;;;17.60;61.20;;;;;;5019141;28;1245;-71
2023/01/31 08:10:47;;;;;;;;;;;17.60;60.90;;;;;;5019416;28;879;-70
2023/01/31 08:13:13;;;;;;;;;;;17.60;60.90;;;;;;5019484;28;872;-70
2023/01/31 08:15:38;;;;;;;;;;;17.60;60.90;;;;;;5017943;28;840;-72
2023/01/31 08:18:04;;;;;;;;;;;17.60;60.90;;;;;;5019706;28;1351;-70
2023/01/31 08:20:29;;;;;;;;;;;17.60;60.90;;;;;;5020085;28;884;-71
2023/01/31 08:22:57;;;;;;;;;;;17.60;60.90;;;;;;5016313;28;856;-71
2023/01/31 08:25:22;;;;;;;;;;;17.60;60.90;;;;;;5017316;28;1906;-71
2023/01/31 08:27:47;;;;;;;;;;;17.60;60.90;;;;;;5020049;28;1310;-71
2023/01/31 08:30:13;;;;;;;;;;;17.60;60.90;;;;;;5022889;28;955;-71
2023/01/31 08:32:38;;;;;;;;;;;17.60;61.00;;;;;;5035915;28;871;-70
2023/01/31 08:35:04;;;;;;;;;;;17.60;60.90;;;;;;5018342;28;1348;-69
2023/01/31 08:37:31;;;;;;;;;;;17.60;60.90;;;;;;5020515;28;1197;-70
2023/01/31 08:39:57;;;;;;;;;;;17.60;60.90;;;;;;5016889;28;1358;-70
2023/01/31 08:42:22;;;;;;;;;;;17.60;61.00;;;;;;5018870;28;899;-70
2023/01/31 08:44:47;;;;;;;;;;;17.60;61.00;;;;;;5020828;28;1955;-70
2023/01/31 08:47:13;;;;;;;;;;;17.60;61.00;;;;;;5018411;28;895;-70
2023/01/31 08:49:39;;;;;;;;;;;17.60;61.00;;;;;;5019775;28;1363;-70
2023/01/31 08:52:04;;;;;;;;;;;17.60;61.00;;;;;;5021041;28;1354;-70
2023/01/31 08:54:30;;;;;;;;;;;17.60;61.00;;;;;;5017312;28;816;-70
2023/01/31 08:56:55;;;;;;;;;;;17.60;61.00;;;;;;5018236;28;836;-70
2023/01/31 08:59:21;;;;;;;;;;;17.60;61.00;;;;;;5020710;28;1296;-71
2023/01/31 09:01:46;;;;;;;;;;;17.60;61.00;;;;;;5020666;28;852;-71
2023/01/31 09:04:12;;;;;;;;;;;17.60;61.00;;;;;;5038019;28;1957;-71
2023/01/31 09:06:37;;;;;;;;;;;17.60;60.90;;;;;;5022285;28;863;-70
2023/01/31 09:09:03;;;;;;;;;;;17.60;60.90;;;;;;5021435;28;1227;-71
2023/01/31 09:11:29;;;;;;;;;;;17.60;61.00;;;;;;5021740;28;1042;-71
2023/01/31 09:13:54;;;;;;;;;;;17.60;60.90;;;;;;5025838;28;919;-70
2023/01/31 09:16:20;;;;;;;;;;;17.60;60.90;;;;;;5024545;28;876;-70
2023/01/31 09:18:45;;;;;;;;;;;17.60;60.90;;;;;;5022355;28;1327;-70
2023/01/31 09:21:11;;;;;;;;;;;17.60;61.00;;;;;;5039031;28;859;-69
2023/01/31 09:23:36;;;;;;;;;;;17.60;60.90;;;;;;5021469;28;1512;-70
2023/01/31 09:26:02;;;;;;;;;;;17.60;61.00;;;;;;5022462;28;1914;-70
2023/01/31 09:28:27;;;;;;;;;;;17.60;61.00;;;;;;5021600;28;1217;-70
2023/01/31 09:30:53;;;;;;;;;;;17.60;61.00;;;;;;5023603;28;804;-70
2023/01/31 09:33:18;;;;;;;;;;;17.60;61.10;;;;;;5036829;28;969;-70
2023/01/31 09:35:53;;;;;;;;;;;17.50;61.00;;;;;;5022103;28;1272;-71
2023/01/31 09:38:19;;;;;;;;;;;17.50;61.10;;;;;;5021262;28;1790;-71
2023/01/31 09:40:44;;;;;;;;;;;17.50;61.10;;;;;;5020253;28;918;-71
2023/01/31 09:43:10;;;;;;;;;;;17.50;61.10;;;;;;5038055;28;1035;-71
2023/01/31 09:45:35;;;;;;;;;;;17.50;61.10;;;;;;5020598;28;1902;-71
2023/01/31 09:48:01;;;;;;;;;;;17.50;61.10;;;;;;5021884;28;1327;-71
2023/01/31 09:50:40;;;;;;;;;;;17.50;61.10;;;;;;5025342;28;820;-71
2023/01/31 09:53:08;;;;;;;;;;;17.50;61.10;;;;;;5021986;28;970;-71
2023/01/31 09:55:35;;;;;;;;;;;17.60;61.10;;;;;;5025764;28;1409;-71
2023/01/31 09:58:04;;;;;;;;;;;17.60;61.10;;;;;;5024406;28;1305;-71
2023/01/31 10:00:45;;;;;;;;;;;17.60;61.10;;;;;;5023897;28;891;-71
2023/01/31 10:03:29;;;;;;;;;;;17.60;61.10;;;;;;5020124;28;887;-72
2023/01/31 10:06:06;;;;;;;;;;;17.60;61.10;;;;;;5021059;28;1961;-72
2023/01/31 10:08:58;;;;;;;;;;;17.60;61.00;;;;;;5019166;28;1260;-71
2023/01/31 10:11:27;;;;;;;;;;;17.60;61.00;;;;;;5018647;28;1268;-72
2023/01/31 10:13:54;;;;;;;;;;;17.60;61.00;;;;;;5035916;28;966;-72
2023/01/31 10:16:40;;;;;;;;;;;17.60;61.00;;;;;;5021817;28;863;-69
2023/01/31 10:19:13;;;;;;;;;;;17.60;61.00;;;;;;5021738;28;1266;-70
2023/01/31 10:21:49;;;;;;;;;;;17.60;60.90;;;;;;5020397;28;887;-70
2023/01/31 10:24:16;;;;;;;;;;;17.60;60.90;;;;;;5033194;28;1961;-70
2023/01/31 10:26:42;;;;;;;;;;;17.60;60.90;;;;;;5033954;28;886;-70
2023/01/31 10:29:16;;;;;;;;;;;17.60;60.90;;;;;;5020667;28;1255;-69
2023/01/31 10:31:49;;;;;;;;;;;17.60;60.90;;;;;;5038823;28;789;-69
2023/01/31 10:34:20;;;;;;;;;;;17.60;60.80;;;;;;5020807;28;1532;-70
2023/01/31 10:36:50;;;;;;;;;;;17.60;60.90;;;;;;5020400;28;923;-70
2023/01/31 10:39:26;;;;;;;;;;;17.60;60.80;;;;;;5022782;28;1354;-69
2023/01/31 10:41:54;;;;;;;;;;;17.60;60.90;;;;;;5021953;28;1026;-69
2023/01/31 10:44:24;;;;;;;;;;;17.60;60.90;;;;;;5017467;28;1906;-69
2023/01/31 10:46:50;;;;;;;;;;;17.60;60.90;;;;;;5028457;28;814;-70
2023/01/31 10:49:15;;;;;;;;;;;17.60;60.90;;;;;;5035427;28;1328;-69
2023/01/31 10:51:48;;;;;;;;;;;17.60;60.90;;;;;;5036271;28;1000;-71
2023/01/31 10:54:24;;;;;;;;;;;17.60;60.90;;;;;;5020539;28;915;-70
2023/01/31 10:56:50;;;;;;;;;;;17.60;60.90;;;;;;5038929;28;854;-70
2023/01/31 10:59:35;;;;;;;;;;;17.60;61.00;;;;;;5022264;28;1521;-70
2023/01/31 11:02:01;;;;;;;;;;;17.60;61.00;;;;;;5021085;28;875;-70
2023/01/31 11:04:31;;;;;;;;;;;17.60;61.00;;;;;;5020506;28;1999;-71
2023/01/31 11:06:57;;;;;;;;;;;17.60;61.10;;;;;;5035770;28;843;-71
2023/01/31 11:09:23;;;;;;;;;;;17.60;61.10;;;;;;5020219;28;1240;-69
2023/01/31 11:11:55;;;;;;;;;;;17.50;61.10;;;;;;5020386;28;853;-71
2023/01/31 11:14:21;;;;;;;;;;;17.50;61.10;;;;;;5020851;28;786;-71
2023/01/31 11:16:46;;;;;;;;;;;17.50;61.10;;;;;;5019326;28;792;-71
2023/01/31 11:19:32;;;;;;;;;;;17.50;62.00;;;;;;5035087;28;1284;-69
2023/01/31 11:21:57;;;;;;;;;;;17.50;61.30;;;;;;5019626;28;1353;-69
2023/01/31 11:24:23;;;;;;;;;;;17.50;61.40;;;;;;5022153;28;1978;-69
2023/01/31 11:26:52;;;;;;;;;;;17.50;61.30;;;;;;5020419;28;907;-69
2023/01/31 11:29:22;;;;;;;;;;;17.50;61.40;;;;;;5021367;28;1246;-70
2023/01/31 11:31:47;;;;;;;;;;;17.50;61.50;;;;;;5019889;28;849;-69
2023/01/31 11:34:19;;;;;;;;;;;17.50;61.40;;;;;;5038532;28;1405;-70
2023/01/31 11:36:45;;;;;;;;;;;17.50;61.50;;;;;;5012939;28;1245;-70
2023/01/31 11:39:25;;;;;;;;;;;17.50;61.50;;;;;;5035982;28;1356;-69
2023/01/31 11:41:51;;;;;;;;;;;17.40;61.50;;;;;;5018019;28;925;-70
2023/01/31 11:44:17;;;;;;;;;;;17.40;61.50;;;;;;5037026;28;1887;-69
2023/01/31 11:46:51;;;;;;;;;;;17.40;61.60;;;;;;5034047;28;1168;-69
2023/01/31 11:49:36;;;;;;;;;;;17.40;61.60;;;;;;5032362;28;1269;-69
2023/01/31 11:52:10;;;;;;;;;;;17.40;61.60;;;;;;5020231;28;1084;-69
2023/01/31 11:54:36;;;;;;;;;;;17.40;61.70;;;;;;5033171;28;1167;-69
2023/01/31 11:57:01;;;;;;;;;;;17.40;61.70;;;;;;5017908;28;905;-69
2023/01/31 11:59:27;;;;;;;;;;;17.30;61.70;;;;;;5019254;28;1440;-69
2023/01/31 12:01:54;;;;;;;;;;;17.30;61.70;;;;;;5031643;28;852;-70
2023/01/31 12:04:24;;;;;;;;;;;17.30;61.70;;;;;;5020400;28;1956;-70
2023/01/31 12:07:00;;;;;;;;;;;17.30;61.80;;;;;;5018411;28;989;-70
2023/01/31 12:09:27;;;;;;;;;;;17.40;61.90;;;;;;5018044;28;1330;-70
2023/01/31 12:11:56;;;;;;;;;;;17.30;62.60;;;;;;5020246;28;868;-69
2023/01/31 12:14:23;;;;;;;;;;;17.30;61.80;;;;;;5019166;28;1308;-69
2023/01/31 12:16:49;;;;;;;;;;;17.30;61.90;;;;;;5020690;28;872;-70
2023/01/31 12:19:20;;;;;;;;;;;17.30;61.90;;;;;;5020794;28;1281;-70
2023/01/31 12:21:51;;;;;;;;;;;17.30;61.90;;;;;;5019818;28;1206;-69
2023/01/31 12:24:26;;;;;;;;;;;17.30;62.00;;;;;;5018011;28;1990;-69
2023/01/31 12:26:55;;;;;;;;;;;17.30;62.00;;;;;;5033557;28;1129;-70
2023/01/31 12:29:33;;;;;;;;;;;17.30;62.00;;;;;;5035504;28;1233;-70
2023/01/31 12:32:22;;;;;;;;;;;17.30;62.10;;;;;;5020145;28;809;-70
2023/01/31 12:34:47;;;;;;;;;;;17.30;62.10;;;;;;5022799;28;1353;-69
2023/01/31 12:37:31;;;;;;;;;;;17.30;62.10;;;;;;5017651;28;895;-69
2023/01/31 12:40:24;;;;;;;;;;;17.30;62.10;;;;;;5016685;28;1288;-69
2023/01/31 12:42:50;;;;;;;;;;;17.30;62.20;;;;;;5035666;28;876;-69
2023/01/31 12:45:37;;;;;;;;;;;17.30;62.20;;;;;;5019501;28;1984;-69
2023/01/31 12:48:15;;;;;;;;;;;17.30;62.30;;;;;;5018190;28;1378;-70
2023/01/31 12:50:43;;;;;;;;;;;17.20;62.20;;;;;;5019459;28;1362;-69
2023/01/31 12:53:12;;;;;;;;;;;17.20;62.20;;;;;;5017675;28;1340;-69
2023/01/31 12:55:42;;;;;;;;;;;17.20;63.00;;;;;;5017774;28;2165;-69
2023/01/31 12:58:26;;;;;;;;;;;17.20;62.20;;;;;;5033853;28;1492;-70
2023/01/31 13:00:54;;;;;;;;;;;17.20;62.20;;;;;;5020414;28;1650;-69
2023/01/31 13:03:23;;;;;;;;;;;17.30;62.10;;;;;;5018409;28;1483;-69
2023/01/31 13:05:56;;;;;;;;;;;17.30;62.10;;;;;;5014865;28;1965;-71
2023/01/31 13:08:25;;;;;;;;;;;17.40;62.00;;;;;;5013729;28;1353;-69
2023/01/31 13:10:59;;;;;;;;;;;17.30;61.80;;;;;;5033036;28;1632;-72
2023/01/31 13:13:25;;;;;;;;;;;17.40;61.70;;;;;;5032056;28;809;-71
2023/01/31 13:15:50;;;;;;;;;;;17.40;61.70;;;;;;5022450;28;899;-72
2023/01/31 13:18:16;;;;;;;;;;;17.50;61.60;;;;;;5023907;28;1225;-71
2023/01/31 13:20:46;;;;;;;;;;;17.50;61.50;;;;;;5021453;28;801;-67
2023/01/31 13:23:31;;;;;;;;;;;17.50;61.50;;;;;;5035989;28;908;-68
2023/01/31 13:26:00;;;;;;;;;;;17.50;61.40;;;;;;5018196;28;1906;-67
2023/01/31 13:28:28;;;;;;;;;;;17.50;61.30;;;;;;5018446;28;1327;-68
2023/01/31 13:31:04;;;;;;;;;;;17.60;61.20;;;;;;5027991;28;1456;-68
2023/01/31 13:33:31;;;;;;;;;;;17.60;61.20;;;;;;5032336;28;1098;-68
2023/01/31 13:36:02;;;;;;;;;;;17.60;61.10;;;;;;5020493;28;1452;-70
2023/01/31 13:38:31;;;;;;;;;;;17.60;61.10;;;;;;5032358;28;1358;-69
2023/01/31 13:40:56;;;;;;;;;;;17.60;61.10;;;;;;5019696;28;902;-69
2023/01/31 13:43:22;;;;;;;;;;;17.60;61.00;;;;;;5014379;28;809;-70
2023/01/31 13:45:52;;;;;;;;;;;17.60;61.00;;;;;;5017587;28;1973;-70
2023/01/31 13:48:20;;;;;;;;;;;17.60;60.90;;;;;;5034569;28;1408;-70
2023/01/31 13:51:16;;;;;;;;;;;17.60;60.90;;;;;;5034150;28;822;-70
2023/01/31 13:53:44;;;;;;;;;;;17.60;60.90;;;;;;5016098;28;1309;-70
2023/01/31 13:56:09;;;;;;;;;;;17.70;60.90;;;;;;5037449;28;848;-70
2023/01/31 13:58:35;;;;;;;;;;;17.70;60.90;;;;;;5021616;28;1261;-70
2023/01/31 14:01:02;;;;;;;;;;;17.70;60.90;;;;;;5006217;28;1342;-70
2023/01/31 14:03:28;;;;;;;;;;;17.70;60.80;;;;;;5022049;28;1274;-70
2023/01/31 14:05:57;;;;;;;;;;;17.70;60.80;;;;;;5019079;28;1903;-70
2023/01/31 14:08:25;;;;;;;;;;;17.70;60.80;;;;;;5020502;28;1267;-70
2023/01/31 14:10:51;;;;;;;;;;;17.70;60.80;;;;;;5019984;28;833;-71
2023/01/31 14:13:23;;;;;;;;;;;17.70;60.80;;;;;;5024856;28;1015;-70
2023/01/31 14:15:49;;;;;;;;;;;17.70;60.70;;;;;;5017881;28;840;-70
2023/01/31 14:18:33;;;;;;;;;;;17.70;60.70;;;;;;5035829;28;1290;-69
2023/01/31 14:21:19;;;;;;;;;;;17.70;60.70;;;;;;5036414;28;1349;-67
2023/01/31 14:23:47;;;;;;;;;;;17.70;60.70;;;;;;5020381;28;1162;-68
2023/01/31 14:26:32;;;;;;;;;;;17.70;60.70;;;;;;5024233;28;1906;-68
2023/01/31 14:28:57;;;;;;;;;;;17.70;60.60;;;;;;5016998;28;1377;-68
2023/01/31 14:31:23;;;;;;;;;;;17.70;60.60;;;;;;5032042;28;2019;-69
2023/01/31 14:33:49;;;;;;;;;;;17.70;61.40;;;;;;5017294;28;1783;-69
2023/01/31 14:36:33;;;;;;;;;;;17.70;60.60;;;;;;5019154;28;1479;-69
2023/01/31 14:39:15;;;;;;;;;;;17.70;60.70;;;;;;5020940;28;1299;-70
2023/01/31 14:41:59;;;;;;;;;;;17.70;60.70;;;;;;5021992;28;899;-68
2023/01/31 14:44:26;;;;;;;;;;;17.70;60.70;;;;;;5018920;28;1970;-68
2023/01/31 14:47:03;;;;;;;;;;;17.70;60.80;;;;;;5020116;28;859;-69
2023/01/31 14:50:01;;;;;;;;;;;17.70;60.80;;;;;;5018714;28;2079;-68